createdAt,value
2022-12-22T00:01:57.926Z,21.75
2022-12-22T00:04:43.633Z,21.73
2022-12-22T00:07:29.008Z,23.87
2022-12-22T00:10:14.611Z,23.92
2022-12-22T00:13:00.243Z,24.43
2022-12-22T00:15:48.883Z,23.90
2022-12-22T00:18:35.375Z,23.83
2022-12-22T00:24:06.570Z,25.33
2022-12-22T00:26:54.160Z,24.58
2022-12-22T00:29:40.629Z,25.52
2022-12-22T00:35:17.231Z,25.45
2022-12-22T00:38:02.930Z,25.65
2022-12-22T00:40:48.589Z,27.33
2022-12-22T00:43:34.096Z,28.13
2022-12-22T00:46:22.384Z,28.37
2022-12-22T00:49:08.462Z,29.30
2022-12-22T00:51:54.650Z,28.05
2022-12-22T00:54:41.743Z,29.13
2022-12-22T00:57:36.056Z,27.75
2022-12-22T01:00:25.466Z,28.25
2022-12-22T01:03:11.036Z,28.13
2022-12-22T01:05:57.025Z,28.85
2022-12-22T01:08:42.965Z,28.35
2022-12-22T01:11:28.421Z,28.77
2022-12-22T01:14:13.996Z,27.23
2022-12-22T01:16:59.402Z,27.80
2022-12-22T01:19:44.989Z,27.10
2022-12-22T01:22:40.250Z,26.77
2022-12-22T01:25:37.059Z,27.63
2022-12-22T01:28:23.474Z,27.13
2022-12-22T01:31:09.690Z,26.40
2022-12-22T01:33:55.063Z,27.80
2022-12-22T01:36:40.517Z,27.42
2022-12-22T01:39:27.250Z,28.10
2022-12-22T01:42:12.801Z,26.38
2022-12-22T01:44:59.004Z,27.90
2022-12-22T01:47:47.637Z,27.13
2022-12-22T01:50:50.333Z,27.70
2022-12-22T01:53:40.237Z,25.17
2022-12-22T01:56:26.451Z,26.08
2022-12-22T01:59:18.686Z,25.85
2022-12-22T02:02:04.701Z,25.75
2022-12-22T02:05:01.015Z,25.75
2022-12-22T02:08:17.102Z,25.23
2022-12-22T02:11:40.896Z,25.23
2022-12-22T02:14:32.727Z,25.48
2022-12-22T02:18:05.902Z,26.67
2022-12-22T02:21:11.798Z,25.73
2022-12-22T02:24:12.224Z,26.05
2022-12-22T02:27:04.991Z,25.73
2022-12-22T02:29:56.427Z,25.65
2022-12-22T02:32:43.501Z,26.92
2022-12-22T02:35:35.271Z,25.35
2022-12-22T02:38:43.091Z,25.33
2022-12-22T02:42:07.343Z,25.75
2022-12-22T02:45:50.743Z,25.23
2022-12-22T02:49:05.444Z,24.85
2022-12-22T02:51:59.550Z,26.00
2022-12-22T02:54:47.605Z,25.42
2022-12-22T02:57:36.648Z,25.75
2022-12-22T03:00:25.256Z,25.38
2022-12-22T03:03:11.311Z,27.30
2022-12-22T03:05:57.271Z,26.45
2022-12-22T03:08:42.914Z,25.92
2022-12-22T03:11:28.470Z,26.90
2022-12-22T03:14:13.872Z,26.58
2022-12-22T03:17:01.841Z,26.77
2022-12-22T03:19:47.525Z,25.45
2022-12-22T03:22:33.107Z,26.73
2022-12-22T03:25:18.712Z,25.83
2022-12-22T03:27:45.902Z,26.40
2022-12-22T03:30:13.154Z,26.10
2022-12-22T03:32:40.235Z,24.63
2022-12-22T03:35:08.102Z,27.15
2022-12-22T03:37:35.311Z,25.23
2022-12-22T03:40:02.511Z,26.10
2022-12-22T03:42:49.604Z,27.15
2022-12-22T03:45:35.797Z,26.30
2022-12-22T03:48:02.888Z,26.60
2022-12-22T03:50:29.991Z,27.75
2022-12-22T03:52:57.147Z,27.85
2022-12-22T03:55:24.268Z,27.52
2022-12-22T03:57:51.493Z,25.58
2022-12-22T04:00:19.235Z,26.85
2022-12-22T04:02:46.537Z,26.98
2022-12-22T04:05:13.774Z,29.23
2022-12-22T04:07:40.820Z,27.70
2022-12-22T04:10:27.441Z,28.65
2022-12-22T04:12:55.249Z,26.77
2022-12-22T04:15:31.623Z,28.95
2022-12-22T04:17:59.498Z,27.13
2022-12-22T04:20:28.298Z,27.95
2022-12-22T04:22:57.139Z,26.10
2022-12-22T04:25:26.050Z,25.77
2022-12-22T04:27:53.190Z,25.58
2022-12-22T04:30:20.427Z,25.17
2022-12-22T04:32:47.548Z,24.65
2022-12-22T04:35:14.638Z,25.35
2022-12-22T04:37:41.771Z,24.25
2022-12-22T04:40:09.375Z,24.70
2022-12-22T04:42:36.447Z,22.08
2022-12-22T04:45:07.226Z,24.48
2022-12-22T04:47:34.265Z,23.35
2022-12-22T04:50:01.347Z,23.25
2022-12-22T04:52:28.506Z,21.85
2022-12-22T04:54:55.546Z,22.25
2022-12-22T04:57:22.774Z,22.50
2022-12-22T04:59:49.826Z,23.23
2022-12-22T05:02:17.203Z,22.60
2022-12-22T05:04:44.288Z,22.33
2022-12-22T05:07:11.320Z,22.30
2022-12-22T05:09:38.711Z,23.15
2022-12-22T05:12:26.299Z,21.63
2022-12-22T05:14:53.525Z,21.77
2022-12-22T05:17:20.835Z,20.08
2022-12-22T05:19:48.179Z,21.65
2022-12-22T05:22:15.514Z,21.23
2022-12-22T05:24:42.704Z,22.77
2022-12-22T05:27:12.193Z,21.40
2022-12-22T05:29:39.464Z,22.73
2022-12-22T05:32:06.629Z,22.08
2022-12-22T05:34:33.660Z,23.90
2022-12-22T05:37:00.936Z,23.00
2022-12-22T05:39:28.162Z,23.58
2022-12-22T05:41:55.351Z,22.83
2022-12-22T05:44:22.656Z,22.63
2022-12-22T05:46:53.171Z,22.90
2022-12-22T05:49:20.593Z,23.42
2022-12-22T05:51:48.513Z,23.48
2022-12-22T05:54:15.968Z,25.67
2022-12-22T05:56:43.184Z,27.05
2022-12-22T05:59:11.348Z,26.58
2022-12-22T06:01:38.668Z,26.17
2022-12-22T06:04:05.873Z,26.70
2022-12-22T06:06:36.112Z,27.10
2022-12-22T06:09:03.328Z,26.95
2022-12-22T06:11:30.681Z,28.35
2022-12-22T06:13:57.849Z,29.05
2022-12-22T06:16:24.987Z,28.48
2022-12-22T06:18:52.015Z,30.17
2022-12-22T06:21:19.027Z,30.17
2022-12-22T06:23:46.265Z,30.13
2022-12-22T06:26:13.379Z,30.13
2022-12-22T06:28:40.533Z,30.08
2022-12-22T06:31:07.888Z,31.55
2022-12-22T06:33:35.000Z,31.27
2022-12-22T06:36:06.476Z,31.73
2022-12-22T06:38:34.470Z,31.75
2022-12-22T06:41:01.803Z,30.38
2022-12-22T06:43:28.967Z,30.90
2022-12-22T06:45:56.159Z,30.17
2022-12-22T06:48:23.420Z,31.77
2022-12-22T06:50:51.826Z,29.50
2022-12-22T06:53:18.909Z,30.83
2022-12-22T06:55:45.976Z,29.42
2022-12-22T06:58:13.069Z,29.85
2022-12-22T07:00:40.162Z,30.98
2022-12-22T07:03:07.552Z,33.42
2022-12-22T07:05:34.876Z,31.67
2022-12-22T07:08:08.134Z,28.63
2022-12-22T07:10:54.674Z,28.75
2022-12-22T07:13:21.947Z,29.42
2022-12-22T07:15:55.636Z,28.25
2022-12-22T07:18:28.965Z,28.52
2022-12-22T07:20:56.109Z,31.10
2022-12-22T07:23:23.348Z,28.45
2022-12-22T07:25:50.439Z,28.05
2022-12-22T07:28:21.036Z,27.85
2022-12-22T07:30:50.681Z,27.50
2022-12-22T07:33:18.043Z,29.10
2022-12-22T07:35:45.976Z,29.77
2022-12-22T07:38:13.911Z,31.27
2022-12-22T07:40:42.365Z,31.67
2022-12-22T07:43:09.839Z,32.20
2022-12-22T07:45:36.998Z,34.55
2022-12-22T07:48:24.915Z,35.17
2022-12-22T07:50:51.937Z,34.92
2022-12-22T07:53:18.928Z,33.88
2022-12-22T07:55:46.401Z,31.60
2022-12-22T07:58:14.915Z,32.17
2022-12-22T08:00:42.144Z,31.70
2022-12-22T08:03:09.788Z,31.35
2022-12-22T08:05:38.055Z,30.42
2022-12-22T08:08:05.637Z,32.05
2022-12-22T08:10:33.349Z,32.05
2022-12-22T08:13:00.471Z,31.73
2022-12-22T08:15:27.622Z,29.85
2022-12-22T08:17:54.741Z,32.70
2022-12-22T08:20:21.855Z,29.23
2022-12-22T08:22:49.031Z,33.22
2022-12-22T08:25:16.426Z,29.13
2022-12-22T08:27:50.650Z,26.33
2022-12-22T08:30:17.775Z,23.95
2022-12-22T08:32:49.206Z,23.65
2022-12-22T08:35:16.533Z,22.48
2022-12-22T08:37:45.474Z,22.67
2022-12-22T08:40:27.490Z,22.27
2022-12-22T08:43:00.189Z,21.80
2022-12-22T08:45:27.281Z,23.27
2022-12-22T08:47:54.690Z,22.88
2022-12-22T08:50:21.938Z,23.77
2022-12-22T08:52:49.029Z,23.42
2022-12-22T08:55:16.080Z,23.15
2022-12-22T08:57:43.314Z,24.65
2022-12-22T09:00:13.006Z,21.55
2022-12-22T09:02:40.475Z,22.13
2022-12-22T09:05:08.487Z,20.75
2022-12-22T09:07:35.580Z,21.50
2022-12-22T09:10:02.800Z,21.20
2022-12-22T09:12:32.268Z,21.05
2022-12-22T09:14:59.404Z,21.98
2022-12-22T09:17:26.808Z,21.63
2022-12-22T09:19:54.033Z,20.75
2022-12-22T09:22:28.126Z,18.67
2022-12-22T09:24:56.403Z,18.92
2022-12-22T09:27:23.582Z,20.35
2022-12-22T09:29:50.678Z,19.38
2022-12-22T09:32:17.798Z,20.08
2022-12-22T09:34:46.861Z,18.98
2022-12-22T09:37:16.313Z,18.90
2022-12-22T09:39:43.533Z,18.70
2022-12-22T09:42:18.819Z,18.23
2022-12-22T09:44:50.277Z,18.05
2022-12-22T09:47:33.303Z,17.10
2022-12-22T09:50:01.304Z,17.00
2022-12-22T09:52:50.774Z,15.52
2022-12-22T09:55:33.015Z,13.25
2022-12-22T09:58:00.170Z,14.27
2022-12-22T10:00:28.402Z,13.18
2022-12-22T10:03:22.906Z,14.07
2022-12-22T10:06:12.710Z,14.35
2022-12-22T10:08:40.831Z,14.98
2022-12-22T10:11:13.897Z,14.02
2022-12-22T10:13:41.183Z,16.02
2022-12-22T10:16:37.773Z,16.15
2022-12-22T10:19:13.380Z,15.88
2022-12-22T10:21:46.929Z,15.32
2022-12-22T10:24:27.973Z,14.90
2022-12-22T10:26:59.930Z,14.88
2022-12-22T10:29:28.828Z,13.80
2022-12-22T10:32:05.096Z,13.68
2022-12-22T10:34:32.342Z,13.15
2022-12-22T10:37:05.059Z,13.05
2022-12-22T10:39:38.577Z,12.73
2022-12-22T10:42:13.787Z,10.68
2022-12-22T10:44:46.752Z,11.70
2022-12-22T10:47:21.596Z,12.50
2022-12-22T10:52:30.131Z,12.05
2022-12-22T10:55:21.780Z,11.60
2022-12-22T10:57:50.084Z,11.07
2022-12-22T11:00:25.618Z,11.15
2022-12-22T11:02:59.423Z,11.57
2022-12-22T11:05:27.380Z,11.18
2022-12-22T11:07:56.043Z,11.25
2022-12-22T11:10:28.896Z,11.05
2022-12-22T11:13:07.521Z,11.00
2022-12-22T11:16:17.598Z,10.00
2022-12-22T11:18:56.076Z,10.80
2022-12-22T11:21:54.512Z,10.43
2022-12-22T11:24:46.913Z,10.77
2022-12-22T11:27:46.337Z,11.00
2022-12-22T11:30:33.517Z,9.73
2022-12-22T11:33:18.167Z,9.63
2022-12-22T11:36:05.249Z,9.73
2022-12-22T11:38:57.825Z,9.80
2022-12-22T11:42:03.315Z,10.27
2022-12-22T11:45:08.266Z,9.95
2022-12-22T11:48:29.524Z,9.73
2022-12-22T11:51:22.214Z,10.30
2022-12-22T11:54:23.886Z,9.70
2022-12-22T11:57:15.717Z,8.07
2022-12-22T12:00:09.714Z,7.40
2022-12-22T12:02:59.534Z,7.22
2022-12-22T12:05:59.098Z,7.90
2022-12-22T12:08:54.010Z,7.18
2022-12-22T12:11:50.496Z,7.68
2022-12-22T12:14:43.281Z,7.47
2022-12-22T12:17:21.613Z,7.95
2022-12-22T12:20:00.505Z,7.32
2022-12-22T12:23:23.156Z,7.47
2022-12-22T12:26:15.033Z,7.47
2022-12-22T12:29:10.970Z,8.00
2022-12-22T12:31:47.695Z,7.40
2022-12-22T12:34:17.440Z,8.15
2022-12-22T12:36:57.764Z,8.00
2022-12-22T12:39:46.861Z,8.40
2022-12-22T12:42:35.849Z,8.05
2022-12-22T12:45:05.149Z,7.90
2022-12-22T12:47:36.140Z,7.60
2022-12-22T12:50:09.263Z,7.05
2022-12-22T12:52:39.555Z,8.40
2022-12-22T12:55:32.384Z,8.20
2022-12-22T12:58:03.895Z,7.93
2022-12-22T13:00:34.703Z,8.32
2022-12-22T13:03:05.148Z,7.53
2022-12-22T13:05:57.208Z,8.88
2022-12-22T13:08:31.618Z,8.48
2022-12-22T13:10:58.647Z,8.95
2022-12-22T13:13:25.674Z,8.25
2022-12-22T13:16:02.112Z,8.32
2022-12-22T13:18:29.321Z,8.15
2022-12-22T13:21:50.653Z,7.40
2022-12-22T13:24:22.860Z,8.40
2022-12-22T13:26:44.619Z,7.70
2022-12-22T13:29:39.023Z,7.47
2022-12-22T13:32:27.975Z,6.45
2022-12-22T13:35:32.686Z,6.88
2022-12-22T13:38:01.662Z,6.97
2022-12-22T13:40:41.018Z,7.25
2022-12-22T13:43:16.968Z,6.95
2022-12-22T13:45:44.685Z,6.80
2022-12-22T13:48:19.684Z,6.50
2022-12-22T13:50:57.979Z,6.72
2022-12-22T13:54:08.580Z,6.30
2022-12-22T13:56:46.011Z,6.60
2022-12-22T13:59:42.900Z,6.60
2022-12-22T14:02:16.819Z,6.43
2022-12-22T14:05:10.218Z,6.07
2022-12-22T14:07:37.383Z,6.70
2022-12-22T14:10:05.316Z,6.47
2022-12-22T14:12:44.985Z,6.55
2022-12-22T14:15:19.503Z,6.43
2022-12-22T14:17:53.701Z,6.72
2022-12-22T14:20:40.066Z,6.50
2022-12-22T14:23:23.114Z,7.20
2022-12-22T14:25:55.891Z,7.07
2022-12-22T14:28:27.924Z,7.43
2022-12-22T14:30:58.991Z,7.18
2022-12-22T14:33:29.969Z,6.85
2022-12-22T14:36:17.050Z,6.93
2022-12-22T14:39:09.694Z,6.78
2022-12-22T14:41:51.811Z,6.85
2022-12-22T14:44:43.869Z,6.50
2022-12-22T14:47:20.044Z,6.45
2022-12-22T14:50:22.838Z,6.32
2022-12-22T14:52:59.336Z,6.43
2022-12-22T14:55:32.799Z,5.75
2022-12-22T14:58:10.068Z,5.95
2022-12-22T15:00:39.541Z,5.53
2022-12-22T15:03:33.123Z,5.35
2022-12-22T15:06:28.421Z,5.72
2022-12-22T15:09:15.650Z,5.57
2022-12-22T15:11:51.564Z,5.20
2022-12-22T15:14:22.232Z,5.18
2022-12-22T15:16:49.783Z,5.13
2022-12-22T15:19:22.422Z,5.88
2022-12-22T15:21:51.329Z,5.70
2022-12-22T15:24:19.286Z,5.53
2022-12-22T15:26:46.769Z,5.75
2022-12-22T15:29:14.300Z,5.60
2022-12-22T15:31:43.238Z,5.97
2022-12-22T15:34:31.803Z,5.90
2022-12-22T15:36:59.171Z,6.10
2022-12-22T15:39:26.593Z,6.45
2022-12-22T15:41:54.668Z,6.15
2022-12-22T15:44:22.530Z,6.55
2022-12-22T15:46:57.571Z,7.30
2022-12-22T15:49:27.320Z,6.80
2022-12-22T15:52:01.179Z,6.93
2022-12-22T15:54:30.997Z,7.07
2022-12-22T15:56:58.819Z,6.72
2022-12-22T15:59:28.580Z,7.70
2022-12-22T16:02:01.682Z,8.07
2022-12-22T16:04:30.078Z,7.97
2022-12-22T16:06:59.418Z,8.35
2022-12-22T16:09:38.126Z,9.98
2022-12-22T16:12:19.244Z,10.30
2022-12-22T16:14:51.130Z,11.57
2022-12-22T16:17:24.693Z,11.77
2022-12-22T16:19:54.346Z,12.93
2022-12-22T16:22:33.803Z,13.63
2022-12-22T16:25:04.152Z,13.88
2022-12-22T16:27:31.701Z,14.32
2022-12-22T16:29:59.195Z,13.98
2022-12-22T16:32:30.052Z,14.98
2022-12-22T16:35:20.096Z,14.43
2022-12-22T16:37:51.546Z,14.18
2022-12-22T16:40:19.528Z,14.52
2022-12-22T16:45:45.655Z,15.20
2022-12-22T16:48:18.632Z,14.93
2022-12-22T16:50:47.876Z,15.70
2022-12-22T16:53:15.345Z,15.73
2022-12-22T16:55:43.302Z,15.13
2022-12-22T16:58:14.263Z,15.07
2022-12-22T17:00:44.943Z,16.00
2022-12-22T17:03:16.495Z,16.33
2022-12-22T17:05:49.781Z,17.50
2022-12-22T17:08:35.171Z,17.58
2022-12-22T17:11:10.845Z,17.63
2022-12-22T17:13:39.048Z,18.02
2022-12-22T17:16:06.551Z,16.90
2022-12-22T17:18:34.872Z,18.25
2022-12-22T17:21:04.153Z,18.73
2022-12-22T17:23:40.071Z,19.05
2022-12-22T17:26:11.506Z,18.63
2022-12-22T17:28:39.101Z,19.35
2022-12-22T17:31:06.906Z,20.38
2022-12-22T17:33:34.153Z,20.98
2022-12-22T17:36:02.359Z,20.40
2022-12-22T17:38:29.928Z,21.90
2022-12-22T17:40:57.704Z,21.60
2022-12-22T17:43:25.024Z,21.05
2022-12-22T17:45:53.497Z,21.80
2022-12-22T17:48:20.618Z,22.58
2022-12-22T17:50:49.733Z,22.20
2022-12-22T17:53:21.184Z,22.42
2022-12-22T17:58:36.216Z,23.25
2022-12-22T18:01:03.198Z,22.90
2022-12-22T18:03:30.436Z,23.25
2022-12-22T18:05:59.355Z,22.42
2022-12-22T18:08:26.759Z,24.52
2022-12-22T18:10:53.854Z,24.20
2022-12-22T18:13:25.825Z,25.13
2022-12-22T18:15:56.018Z,23.83
2022-12-22T18:18:23.460Z,23.92
2022-12-22T18:21:07.641Z,24.60
2022-12-22T18:23:37.433Z,24.90
2022-12-22T18:26:06.581Z,25.25
2022-12-22T18:28:33.746Z,25.83
2022-12-22T18:31:00.935Z,25.63
2022-12-22T18:33:27.987Z,26.23
2022-12-22T18:35:55.253Z,26.25
2022-12-22T18:38:30.347Z,26.23
2022-12-22T18:40:57.794Z,26.17
2022-12-22T18:43:25.131Z,26.92
2022-12-22T18:45:52.307Z,27.88
2022-12-22T18:48:19.499Z,27.95
2022-12-22T18:50:48.849Z,27.90
2022-12-22T18:53:24.705Z,28.58
2022-12-22T18:55:52.405Z,28.08
2022-12-22T18:58:19.643Z,29.77
2022-12-22T19:00:47.823Z,29.73
2022-12-22T19:03:33.232Z,29.33
2022-12-22T19:06:00.533Z,31.98
2022-12-22T19:08:28.196Z,30.48
2022-12-22T19:11:02.935Z,30.13
2022-12-22T19:13:40.932Z,30.63
2022-12-22T19:16:13.620Z,31.02
2022-12-22T19:18:41.059Z,29.85
2022-12-22T19:21:14.499Z,31.48
2022-12-22T19:23:41.758Z,30.40
2022-12-22T19:26:26.760Z,31.63
2022-12-22T19:29:03.161Z,30.65
2022-12-22T19:31:34.135Z,30.33
2022-12-22T19:34:05.769Z,32.63
2022-12-22T19:36:34.498Z,31.05
2022-12-22T19:39:05.160Z,32.72
2022-12-22T19:41:46.241Z,31.58
2022-12-22T19:44:25.600Z,32.00
2022-12-22T19:46:59.228Z,32.08
2022-12-22T19:49:29.273Z,31.08
2022-12-22T19:51:57.154Z,31.88
2022-12-22T19:54:24.795Z,30.95
2022-12-22T19:56:55.752Z,31.45
2022-12-22T19:59:38.058Z,30.10
2022-12-22T20:02:23.592Z,31.60
2022-12-22T20:04:51.043Z,32.97
2022-12-22T20:07:20.750Z,33.10
2022-12-22T20:09:48.062Z,32.13
2022-12-22T20:12:37.819Z,33.40
2022-12-22T20:15:20.149Z,33.53
2022-12-22T20:17:53.659Z,35.97
2022-12-22T20:20:37.551Z,34.08
2022-12-22T20:23:17.855Z,36.03
2022-12-22T20:25:49.730Z,34.85
2022-12-22T20:28:30.002Z,32.83
2022-12-22T20:30:58.099Z,34.75
2022-12-22T20:33:26.258Z,32.38
2022-12-22T20:35:55.924Z,33.15
2022-12-22T20:38:40.452Z,32.47
2022-12-22T20:41:10.552Z,34.95
2022-12-22T20:43:39.486Z,35.47
2022-12-22T20:46:28.263Z,35.40
2022-12-22T20:48:59.492Z,34.47
2022-12-22T20:51:31.730Z,34.20
2022-12-22T20:53:59.687Z,35.72
2022-12-22T20:56:35.276Z,35.75
2022-12-22T20:59:22.629Z,36.97
2022-12-22T21:01:52.255Z,36.45
2022-12-22T21:04:19.830Z,35.58
2022-12-22T21:06:53.700Z,37.83
2022-12-22T21:09:22.454Z,37.38
2022-12-22T21:11:50.298Z,37.20
2022-12-22T21:14:17.728Z,36.58
2022-12-22T21:16:45.101Z,35.75
2022-12-22T21:19:18.248Z,36.55
2022-12-22T21:21:46.498Z,38.38
2022-12-22T21:24:13.942Z,35.92
2022-12-22T21:26:46.093Z,38.13
2022-12-22T21:29:21.395Z,38.92
2022-12-22T21:31:48.824Z,39.28
2022-12-22T21:34:16.402Z,37.22
2022-12-22T21:36:46.032Z,38.22
2022-12-22T21:39:29.022Z,39.03
2022-12-22T21:42:04.552Z,37.63
2022-12-22T21:44:35.206Z,38.97
2022-12-22T21:47:03.067Z,37.50
2022-12-22T21:49:33.237Z,39.47
2022-12-22T21:52:00.590Z,38.25
2022-12-22T21:54:28.062Z,38.25
2022-12-22T21:56:55.569Z,38.83
2022-12-22T21:59:23.280Z,38.00
2022-12-22T22:01:54.239Z,38.35
2022-12-22T22:04:22.855Z,36.50
2022-12-22T22:06:52.991Z,36.70
2022-12-22T22:09:20.157Z,38.72
2022-12-22T22:12:06.247Z,36.35
2022-12-22T22:14:33.692Z,36.38
2022-12-22T22:17:01.343Z,36.78
2022-12-22T22:19:28.614Z,37.92
2022-12-22T22:21:56.017Z,37.70
2022-12-22T22:24:23.251Z,39.97
2022-12-22T22:26:51.696Z,40.70
2022-12-22T22:29:19.103Z,40.72
2022-12-22T22:31:46.448Z,40.63
2022-12-22T22:34:13.954Z,38.20
2022-12-22T22:36:44.262Z,38.10
2022-12-22T22:39:11.603Z,41.63
2022-12-22T22:41:43.289Z,41.85
2022-12-22T22:44:11.471Z,38.35
2022-12-22T22:46:38.861Z,38.45
2022-12-22T22:49:06.685Z,38.35
2022-12-22T22:51:34.069Z,37.50
2022-12-22T22:54:01.412Z,40.88
2022-12-22T22:56:28.639Z,41.60
2022-12-22T22:58:55.926Z,38.92
2022-12-22T23:01:23.088Z,37.13
2022-12-22T23:03:50.249Z,38.10
2022-12-22T23:06:17.524Z,35.92
2022-12-22T23:08:44.644Z,41.63
2022-12-22T23:11:15.600Z,37.42
2022-12-22T23:13:43.647Z,37.50
2022-12-22T23:16:10.960Z,39.63
2022-12-22T23:18:38.905Z,38.83
2022-12-22T23:21:08.803Z,36.58
2022-12-22T23:23:36.613Z,35.58
2022-12-22T23:26:04.676Z,40.08
2022-12-22T23:28:33.889Z,35.88
2022-12-22T23:31:01.195Z,35.22
2022-12-22T23:33:31.817Z,42.05
2022-12-22T23:35:59.145Z,38.70
2022-12-22T23:38:26.490Z,38.88
2022-12-22T23:41:00.664Z,43.05
2022-12-22T23:43:28.804Z,36.90
2022-12-22T23:45:55.998Z,41.85
2022-12-22T23:48:23.137Z,43.08
2022-12-22T23:50:50.351Z,40.08
2022-12-22T23:53:18.903Z,41.50
2022-12-22T23:55:47.869Z,45.25
2022-12-22T23:58:16.579Z,38.72
